sensor_id;sensor_type;location;lat;lon;timestamp;temperature;humidity
22235;DHT22;11286;45.596;5.284;2022-10-16T00:00:30;18.30;69.30
22235;DHT22;11286;45.596;5.284;2022-10-16T00:02:56;18.30;62.10
22235;DHT22;11286;45.596;5.284;2022-10-16T00:05:22;18.30;68.60
22235;DHT22;11286;45.596;5.284;2022-10-16T00:07:48;18.30;84.60
22235;DHT22;11286;45.596;5.284;2022-10-16T00:10:13;18.40;65.70
22235;DHT22;11286;45.596;5.284;2022-10-16T00:12:39;18.20;66.10
22235;DHT22;11286;45.596;5.284;2022-10-16T00:15:05;18.10;67.40
22235;DHT22;11286;45.596;5.284;2022-10-16T00:17:31;18.10;69.00
22235;DHT22;11286;45.596;5.284;2022-10-16T00:19:57;18.10;69.30
22235;DHT22;11286;45.596;5.284;2022-10-16T00:22:23;18.10;69.00
22235;DHT22;11286;45.596;5.284;2022-10-16T00:24:49;18.10;71.80
22235;DHT22;11286;45.596;5.284;2022-10-16T00:27:15;18.00;69.10
22235;DHT22;11286;45.596;5.284;2022-10-16T00:29:40;18.00;70.70
22235;DHT22;11286;45.596;5.284;2022-10-16T00:32:06;18.00;68.70
22235;DHT22;11286;45.596;5.284;2022-10-16T00:34:31;18.00;70.20
22235;DHT22;11286;45.596;5.284;2022-10-16T00:36:57;18.00;69.80
22235;DHT22;11286;45.596;5.284;2022-10-16T00:39:22;17.80;69.10
22235;DHT22;11286;45.596;5.284;2022-10-16T00:41:49;17.80;71.90
22235;DHT22;11286;45.596;5.284;2022-10-16T00:44:53;17.80;70.60
22235;DHT22;11286;45.596;5.284;2022-10-16T00:47:23;17.90;76.10
22235;DHT22;11286;45.596;5.284;2022-10-16T00:49:51;17.80;75.00
22235;DHT22;11286;45.596;5.284;2022-10-16T00:52:18;17.80;75.50
22235;DHT22;11286;45.596;5.284;2022-10-16T00:54:46;17.80;74.00
22235;DHT22;11286;45.596;5.284;2022-10-16T00:57:12;17.80;75.10
22235;DHT22;11286;45.596;5.284;2022-10-16T00:59:40;17.70;71.70
22235;DHT22;11286;45.596;5.284;2022-10-16T01:02:09;17.70;76.90
22235;DHT22;11286;45.596;5.284;2022-10-16T01:04:37;17.70;77.30
22235;DHT22;11286;45.596;5.284;2022-10-16T01:09:51;17.70;78.70
22235;DHT22;11286;45.596;5.284;2022-10-16T01:12:33;17.70;79.80
22235;DHT22;11286;45.596;5.284;2022-10-16T01:20:41;17.70;79.70
22235;DHT22;11286;45.596;5.284;2022-10-16T01:26:04;17.70;80.40
22235;DHT22;11286;45.596;5.284;2022-10-16T01:28:46;17.70;80.20
22235;DHT22;11286;45.596;5.284;2022-10-16T01:31:18;17.80;80.60
22235;DHT22;11286;45.596;5.284;2022-10-16T01:33:47;17.80;78.80
22235;DHT22;11286;45.596;5.284;2022-10-16T01:36:21;17.70;80.70
22235;DHT22;11286;45.596;5.284;2022-10-16T01:38:51;17.80;79.20
22235;DHT22;11286;45.596;5.284;2022-10-16T01:41:32;17.70;78.30
22235;DHT22;11286;45.596;5.284;2022-10-16T01:46:46;17.70;80.60
22235;DHT22;11286;45.596;5.284;2022-10-16T01:49:13;17.70;80.00
22235;DHT22;11286;45.596;5.284;2022-10-16T01:51:39;17.70;79.80
22235;DHT22;11286;45.596;5.284;2022-10-16T01:54:08;17.70;80.00
22235;DHT22;11286;45.596;5.284;2022-10-16T01:56:35;17.70;74.90
22235;DHT22;11286;45.596;5.284;2022-10-16T01:59:12;17.70;81.70
22235;DHT22;11286;45.596;5.284;2022-10-16T02:01:42;17.60;82.60
22235;DHT22;11286;45.596;5.284;2022-10-16T02:04:17;17.60;81.40
22235;DHT22;11286;45.596;5.284;2022-10-16T02:06:44;17.60;81.80
22235;DHT22;11286;45.596;5.284;2022-10-16T02:09:10;17.60;77.50
22235;DHT22;11286;45.596;5.284;2022-10-16T02:11:36;17.70;82.10
22235;DHT22;11286;45.596;5.284;2022-10-16T02:14:05;17.70;79.60
22235;DHT22;11286;45.596;5.284;2022-10-16T02:16:36;17.70;83.40
22235;DHT22;11286;45.596;5.284;2022-10-16T02:19:03;17.70;84.50
22235;DHT22;11286;45.596;5.284;2022-10-16T02:21:54;17.70;83.20
22235;DHT22;11286;45.596;5.284;2022-10-16T02:27:20;17.70;81.90
22235;DHT22;11286;45.596;5.284;2022-10-16T02:29:52;17.70;85.40
22235;DHT22;11286;45.596;5.284;2022-10-16T02:32:24;17.70;96.00
22235;DHT22;11286;45.596;5.284;2022-10-16T02:34:54;17.70;84.50
22235;DHT22;11286;45.596;5.284;2022-10-16T02:37:20;17.70;82.10
22235;DHT22;11286;45.596;5.284;2022-10-16T02:39:46;17.60;86.60
22235;DHT22;11286;45.596;5.284;2022-10-16T02:42:13;17.60;82.50
22235;DHT22;11286;45.596;5.284;2022-10-16T02:44:39;17.60;86.30
22235;DHT22;11286;45.596;5.284;2022-10-16T02:47:05;17.60;83.40
22235;DHT22;11286;45.596;5.284;2022-10-16T02:49:30;17.70;79.30
22235;DHT22;11286;45.596;5.284;2022-10-16T02:51:56;17.60;82.70
22235;DHT22;11286;45.596;5.284;2022-10-16T02:54:22;17.60;83.10
22235;DHT22;11286;45.596;5.284;2022-10-16T02:56:47;17.70;81.70
22235;DHT22;11286;45.596;5.284;2022-10-16T02:59:13;17.70;84.10
22235;DHT22;11286;45.596;5.284;2022-10-16T03:01:38;17.60;94.90
22235;DHT22;11286;45.596;5.284;2022-10-16T03:04:04;17.60;84.60
22235;DHT22;11286;45.596;5.284;2022-10-16T03:06:30;17.60;84.70
22235;DHT22;11286;45.596;5.284;2022-10-16T03:08:55;17.60;85.90
22235;DHT22;11286;45.596;5.284;2022-10-16T03:11:21;17.80;85.50
22235;DHT22;11286;45.596;5.284;2022-10-16T03:13:46;17.50;86.50
22235;DHT22;11286;45.596;5.284;2022-10-16T03:16:12;17.60;86.70
22235;DHT22;11286;45.596;5.284;2022-10-16T03:18:37;17.60;85.50
22235;DHT22;11286;45.596;5.284;2022-10-16T03:21:03;17.50;85.50
22235;DHT22;11286;45.596;5.284;2022-10-16T03:23:29;17.50;86.50
22235;DHT22;11286;45.596;5.284;2022-10-16T03:25:54;17.50;88.30
22235;DHT22;11286;45.596;5.284;2022-10-16T03:28:20;17.50;89.50
22235;DHT22;11286;45.596;5.284;2022-10-16T03:30:46;17.60;87.80
22235;DHT22;11286;45.596;5.284;2022-10-16T03:33:11;17.60;89.60
22235;DHT22;11286;45.596;5.284;2022-10-16T03:35:37;17.60;86.90
22235;DHT22;11286;45.596;5.284;2022-10-16T03:38:03;17.60;89.00
22235;DHT22;11286;45.596;5.284;2022-10-16T03:40:28;17.60;87.50
22235;DHT22;11286;45.596;5.284;2022-10-16T03:42:55;17.60;89.60
22235;DHT22;11286;45.596;5.284;2022-10-16T03:45:23;17.60;89.40
22235;DHT22;11286;45.596;5.284;2022-10-16T03:47:48;17.60;90.50
22235;DHT22;11286;45.596;5.284;2022-10-16T03:50:14;17.50;88.80
22235;DHT22;11286;45.596;5.284;2022-10-16T03:52:40;17.50;88.60
22235;DHT22;11286;45.596;5.284;2022-10-16T03:55:06;17.50;90.10
22235;DHT22;11286;45.596;5.284;2022-10-16T03:57:32;17.50;91.00
22235;DHT22;11286;45.596;5.284;2022-10-16T03:59:57;17.50;89.90
22235;DHT22;11286;45.596;5.284;2022-10-16T04:02:23;17.50;90.80
22235;DHT22;11286;45.596;5.284;2022-10-16T04:04:49;17.50;90.90
22235;DHT22;11286;45.596;5.284;2022-10-16T04:07:14;17.40;90.00
22235;DHT22;11286;45.596;5.284;2022-10-16T04:09:40;17.40;90.20
22235;DHT22;11286;45.596;5.284;2022-10-16T04:12:05;17.40;91.50
22235;DHT22;11286;45.596;5.284;2022-10-16T04:14:31;17.40;89.90
22235;DHT22;11286;45.596;5.284;2022-10-16T04:16:56;17.30;91.00
22235;DHT22;11286;45.596;5.284;2022-10-16T04:19:22;17.30;91.30
22235;DHT22;11286;45.596;5.284;2022-10-16T04:21:47;17.30;90.70
22235;DHT22;11286;45.596;5.284;2022-10-16T04:24:13;17.30;91.00
22235;DHT22;11286;45.596;5.284;2022-10-16T04:26:39;17.30;92.30
22235;DHT22;11286;45.596;5.284;2022-10-16T04:29:04;17.20;91.10
22235;DHT22;11286;45.596;5.284;2022-10-16T04:31:31;17.20;91.70
22235;DHT22;11286;45.596;5.284;2022-10-16T04:33:57;17.20;92.20
22235;DHT22;11286;45.596;5.284;2022-10-16T04:36:22;17.20;91.80
22235;DHT22;11286;45.596;5.284;2022-10-16T04:38:48;17.10;90.60
22235;DHT22;11286;45.596;5.284;2022-10-16T04:41:13;17.20;91.00
22235;DHT22;11286;45.596;5.284;2022-10-16T04:43:39;17.20;91.00
22235;DHT22;11286;45.596;5.284;2022-10-16T04:46:05;17.20;92.00
22235;DHT22;11286;45.596;5.284;2022-10-16T04:48:31;17.10;91.40
22235;DHT22;11286;45.596;5.284;2022-10-16T04:50:57;17.20;92.90
22235;DHT22;11286;45.596;5.284;2022-10-16T04:53:22;17.20;92.70
22235;DHT22;11286;45.596;5.284;2022-10-16T04:55:48;17.20;92.80
22235;DHT22;11286;45.596;5.284;2022-10-16T04:58:14;17.20;92.80
22235;DHT22;11286;45.596;5.284;2022-10-16T05:00:40;17.10;99.90
22235;DHT22;11286;45.596;5.284;2022-10-16T05:03:05;17.10;92.30
22235;DHT22;11286;45.596;5.284;2022-10-16T05:05:34;17.20;99.90
22235;DHT22;11286;45.596;5.284;2022-10-16T05:08:00;17.30;93.70
22235;DHT22;11286;45.596;5.284;2022-10-16T05:10:26;17.30;92.70
22235;DHT22;11286;45.596;5.284;2022-10-16T05:12:51;17.30;92.70
22235;DHT22;11286;45.596;5.284;2022-10-16T05:15:17;17.20;92.50
22235;DHT22;11286;45.596;5.284;2022-10-16T05:17:44;17.20;92.90
22235;DHT22;11286;45.596;5.284;2022-10-16T05:20:10;17.20;93.90
22235;DHT22;11286;45.596;5.284;2022-10-16T05:22:35;17.20;93.40
22235;DHT22;11286;45.596;5.284;2022-10-16T05:25:01;17.20;93.50
22235;DHT22;11286;45.596;5.284;2022-10-16T05:27:26;17.00;93.00
22235;DHT22;11286;45.596;5.284;2022-10-16T05:29:52;16.90;93.40
22235;DHT22;11286;45.596;5.284;2022-10-16T05:32:18;16.90;92.30
22235;DHT22;11286;45.596;5.284;2022-10-16T05:34:44;16.90;92.30
22235;DHT22;11286;45.596;5.284;2022-10-16T05:37:11;17.00;94.50
22235;DHT22;11286;45.596;5.284;2022-10-16T05:39:37;17.00;95.70
22235;DHT22;11286;45.596;5.284;2022-10-16T05:42:04;17.00;94.70
22235;DHT22;11286;45.596;5.284;2022-10-16T05:44:30;16.90;94.30
22235;DHT22;11286;45.596;5.284;2022-10-16T05:46:56;16.90;94.20
22235;DHT22;11286;45.596;5.284;2022-10-16T05:49:21;16.90;93.80
22235;DHT22;11286;45.596;5.284;2022-10-16T05:51:47;16.80;93.10
22235;DHT22;11286;45.596;5.284;2022-10-16T05:54:13;16.80;93.30
22235;DHT22;11286;45.596;5.284;2022-10-16T05:56:38;16.70;92.50
22235;DHT22;11286;45.596;5.284;2022-10-16T05:59:04;16.70;93.50
22235;DHT22;11286;45.596;5.284;2022-10-16T06:01:30;16.80;92.30
22235;DHT22;11286;45.596;5.284;2022-10-16T06:03:56;16.80;93.90
22235;DHT22;11286;45.596;5.284;2022-10-16T06:06:24;16.80;94.40
22235;DHT22;11286;45.596;5.284;2022-10-16T06:08:52;16.80;95.80
22235;DHT22;11286;45.596;5.284;2022-10-16T06:11:26;16.90;95.60
22235;DHT22;11286;45.596;5.284;2022-10-16T06:13:53;16.90;95.70
22235;DHT22;11286;45.596;5.284;2022-10-16T06:16:19;17.00;95.40
22235;DHT22;11286;45.596;5.284;2022-10-16T06:18:45;17.00;94.70
22235;DHT22;11286;45.596;5.284;2022-10-16T06:21:14;17.00;95.70
22235;DHT22;11286;45.596;5.284;2022-10-16T06:23:41;17.10;95.50
22235;DHT22;11286;45.596;5.284;2022-10-16T06:26:09;17.10;95.80
22235;DHT22;11286;45.596;5.284;2022-10-16T06:28:35;17.30;95.30
22235;DHT22;11286;45.596;5.284;2022-10-16T06:31:02;17.30;94.40
22235;DHT22;11286;45.596;5.284;2022-10-16T06:33:28;17.30;95.60
22235;DHT22;11286;45.596;5.284;2022-10-16T06:35:54;17.30;95.30
22235;DHT22;11286;45.596;5.284;2022-10-16T06:38:25;17.30;96.10
22235;DHT22;11286;45.596;5.284;2022-10-16T06:40:50;17.30;94.70
22235;DHT22;11286;45.596;5.284;2022-10-16T06:43:16;17.40;94.40
22235;DHT22;11286;45.596;5.284;2022-10-16T06:45:41;17.40;94.20
22235;DHT22;11286;45.596;5.284;2022-10-16T06:48:07;17.50;94.80
22235;DHT22;11286;45.596;5.284;2022-10-16T06:50:32;17.50;94.50
22235;DHT22;11286;45.596;5.284;2022-10-16T06:52:58;17.60;94.20
22235;DHT22;11286;45.596;5.284;2022-10-16T06:55:24;17.70;99.90
22235;DHT22;11286;45.596;5.284;2022-10-16T06:57:49;17.80;93.50
22235;DHT22;11286;45.596;5.284;2022-10-16T07:00:15;17.80;93.90
22235;DHT22;11286;45.596;5.284;2022-10-16T07:02:41;17.70;99.90
22235;DHT22;11286;45.596;5.284;2022-10-16T07:05:07;17.90;99.90
22235;DHT22;11286;45.596;5.284;2022-10-16T07:07:32;17.90;99.90
22235;DHT22;11286;45.596;5.284;2022-10-16T07:09:58;18.10;99.90
22235;DHT22;11286;45.596;5.284;2022-10-16T07:12:23;18.10;99.90
22235;DHT22;11286;45.596;5.284;2022-10-16T07:14:50;18.10;99.90
22235;DHT22;11286;45.596;5.284;2022-10-16T07:17:17;18.10;99.90
22235;DHT22;11286;45.596;5.284;2022-10-16T07:19:45;18.20;99.90
22235;DHT22;11286;45.596;5.284;2022-10-16T07:22:10;18.30;99.90
22235;DHT22;11286;45.596;5.284;2022-10-16T07:24:36;18.30;99.90
22235;DHT22;11286;45.596;5.284;2022-10-16T07:27:02;18.40;99.90
22235;DHT22;11286;45.596;5.284;2022-10-16T07:29:27;18.50;99.90
22235;DHT22;11286;45.596;5.284;2022-10-16T07:31:53;18.70;99.90
22235;DHT22;11286;45.596;5.284;2022-10-16T07:34:21;18.80;99.90
22235;DHT22;11286;45.596;5.284;2022-10-16T07:36:50;18.90;99.90
22235;DHT22;11286;45.596;5.284;2022-10-16T07:39:16;18.90;99.90
22235;DHT22;11286;45.596;5.284;2022-10-16T07:41:42;19.20;99.90
22235;DHT22;11286;45.596;5.284;2022-10-16T07:44:08;20.70;99.90
22235;DHT22;11286;45.596;5.284;2022-10-16T07:46:35;23.80;99.90
22235;DHT22;11286;45.596;5.284;2022-10-16T07:49:02;25.60;99.90
22235;DHT22;11286;45.596;5.284;2022-10-16T07:51:27;29.60;99.90
22235;DHT22;11286;45.596;5.284;2022-10-16T07:53:54;32.10;99.90
22235;DHT22;11286;45.596;5.284;2022-10-16T07:56:20;33.70;99.90
22235;DHT22;11286;45.596;5.284;2022-10-16T07:58:46;34.00;99.90
22235;DHT22;11286;45.596;5.284;2022-10-16T08:01:15;34.50;99.90
22235;DHT22;11286;45.596;5.284;2022-10-16T08:03:43;35.00;99.90
22235;DHT22;11286;45.596;5.284;2022-10-16T08:06:09;35.80;99.90
22235;DHT22;11286;45.596;5.284;2022-10-16T08:08:34;35.60;99.90
22235;DHT22;11286;45.596;5.284;2022-10-16T08:11:00;35.10;99.90
22235;DHT22;11286;45.596;5.284;2022-10-16T08:13:31;34.80;99.90
22235;DHT22;11286;45.596;5.284;2022-10-16T08:15:57;35.10;99.90
22235;DHT22;11286;45.596;5.284;2022-10-16T08:18:22;34.40;99.90
22235;DHT22;11286;45.596;5.284;2022-10-16T08:20:54;34.00;99.90
22235;DHT22;11286;45.596;5.284;2022-10-16T08:23:20;34.00;99.90
22235;DHT22;11286;45.596;5.284;2022-10-16T08:25:45;31.80;99.90
22235;DHT22;11286;45.596;5.284;2022-10-16T08:28:11;32.90;99.90
22235;DHT22;11286;45.596;5.284;2022-10-16T08:30:37;34.70;99.90
22235;DHT22;11286;45.596;5.284;2022-10-16T08:33:03;35.30;99.90
22235;DHT22;11286;45.596;5.284;2022-10-16T08:35:29;35.80;99.90
22235;DHT22;11286;45.596;5.284;2022-10-16T08:37:54;35.70;99.90
22235;DHT22;11286;45.596;5.284;2022-10-16T08:40:23;36.70;99.90
22235;DHT22;11286;45.596;5.284;2022-10-16T08:45:58;37.00;99.90
22235;DHT22;11286;45.596;5.284;2022-10-16T08:51:02;38.20;99.90
22235;DHT22;11286;45.596;5.284;2022-10-16T08:53:55;37.30;99.90
22235;DHT22;11286;45.596;5.284;2022-10-16T08:56:21;38.60;99.90
22235;DHT22;11286;45.596;5.284;2022-10-16T08:58:48;37.10;99.90
22235;DHT22;11286;45.596;5.284;2022-10-16T09:01:16;38.20;99.90
22235;DHT22;11286;45.596;5.284;2022-10-16T09:07:13;39.70;99.90
22235;DHT22;11286;45.596;5.284;2022-10-16T09:12:42;39.00;99.90
22235;DHT22;11286;45.596;5.284;2022-10-16T09:15:14;39.30;99.90
22235;DHT22;11286;45.596;5.284;2022-10-16T09:22:49;41.20;99.90
22235;DHT22;11286;45.596;5.284;2022-10-16T09:25:18;41.60;99.90
22235;DHT22;11286;45.596;5.284;2022-10-16T09:27:48;41.80;99.90
22235;DHT22;11286;45.596;5.284;2022-10-16T09:30:17;40.30;99.90
22235;DHT22;11286;45.596;5.284;2022-10-16T09:32:45;40.80;99.90
22235;DHT22;11286;45.596;5.284;2022-10-16T09:35:18;39.00;99.90
22235;DHT22;11286;45.596;5.284;2022-10-16T09:37:47;39.30;99.90
22235;DHT22;11286;45.596;5.284;2022-10-16T09:40:27;38.70;99.90
22235;DHT22;11286;45.596;5.284;2022-10-16T09:43:01;39.50;99.90
22235;DHT22;11286;45.596;5.284;2022-10-16T09:45:27;37.00;99.90
22235;DHT22;11286;45.596;5.284;2022-10-16T09:47:53;36.30;99.90
22235;DHT22;11286;45.596;5.284;2022-10-16T09:50:24;38.70;99.90
22235;DHT22;11286;45.596;5.284;2022-10-16T09:53:03;37.60;99.90
22235;DHT22;11286;45.596;5.284;2022-10-16T09:55:29;38.40;99.90
22235;DHT22;11286;45.596;5.284;2022-10-16T09:57:55;39.00;99.90
22235;DHT22;11286;45.596;5.284;2022-10-16T10:00:22;39.30;99.90
22235;DHT22;11286;45.596;5.284;2022-10-16T10:02:49;38.20;99.90
22235;DHT22;11286;45.596;5.284;2022-10-16T10:05:24;38.40;99.90
22235;DHT22;11286;45.596;5.284;2022-10-16T10:08:03;41.20;99.90
22235;DHT22;11286;45.596;5.284;2022-10-16T10:10:40;39.00;99.90
22235;DHT22;11286;45.596;5.284;2022-10-16T10:13:25;40.60;99.90
22235;DHT22;11286;45.596;5.284;2022-10-16T10:15:52;40.60;99.90
22235;DHT22;11286;45.596;5.284;2022-10-16T10:18:20;39.00;99.90
22235;DHT22;11286;45.596;5.284;2022-10-16T10:21:00;40.00;99.90
22235;DHT22;11286;45.596;5.284;2022-10-16T10:23:28;39.60;99.90
22235;DHT22;11286;45.596;5.284;2022-10-16T10:26:11;39.70;99.90
22235;DHT22;11286;45.596;5.284;2022-10-16T10:34:32;36.80;99.90
22235;DHT22;11286;45.596;5.284;2022-10-16T10:43:22;35.90;99.90
22235;DHT22;11286;45.596;5.284;2022-10-16T10:45:59;34.10;99.90
22235;DHT22;11286;45.596;5.284;2022-10-16T10:48:51;33.70;99.90
22235;DHT22;11286;45.596;5.284;2022-10-16T10:51:43;35.40;99.90
22235;DHT22;11286;45.596;5.284;2022-10-16T10:54:28;34.10;99.90
22235;DHT22;11286;45.596;5.284;2022-10-16T11:03:03;35.30;99.90
22235;DHT22;11286;45.596;5.284;2022-10-16T11:11:41;38.40;99.90
22235;DHT22;11286;45.596;5.284;2022-10-16T11:14:24;35.80;99.90
22235;DHT22;11286;45.596;5.284;2022-10-16T11:17:16;33.30;99.90
22235;DHT22;11286;45.596;5.284;2022-10-16T11:20:11;34.10;99.90
22235;DHT22;11286;45.596;5.284;2022-10-16T11:23:02;35.30;99.90
22235;DHT22;11286;45.596;5.284;2022-10-16T11:25:31;35.00;99.90
22235;DHT22;11286;45.596;5.284;2022-10-16T11:28:09;33.50;99.90
22235;DHT22;11286;45.596;5.284;2022-10-16T11:30:47;33.80;99.90
22235;DHT22;11286;45.596;5.284;2022-10-16T11:38:47;37.50;99.90
22235;DHT22;11286;45.596;5.284;2022-10-16T11:41:25;38.10;99.90
22235;DHT22;11286;45.596;5.284;2022-10-16T11:49:44;36.00;99.90
22235;DHT22;11286;45.596;5.284;2022-10-16T11:52:20;35.20;99.90
22235;DHT22;11286;45.596;5.284;2022-10-16T11:54:53;37.20;99.90
22235;DHT22;11286;45.596;5.284;2022-10-16T11:57:27;38.00;99.90
22235;DHT22;11286;45.596;5.284;2022-10-16T12:02:37;34.50;99.90
22235;DHT22;11286;45.596;5.284;2022-10-16T12:05:18;34.70;99.90
22235;DHT22;11286;45.596;5.284;2022-10-16T12:08:10;35.90;99.90
22235;DHT22;11286;45.596;5.284;2022-10-16T12:10:38;35.70;99.90
22235;DHT22;11286;45.596;5.284;2022-10-16T12:13:25;35.50;99.90
22235;DHT22;11286;45.596;5.284;2022-10-16T12:15:50;34.30;99.90
22235;DHT22;11286;45.596;5.284;2022-10-16T12:18:24;34.20;99.90
22235;DHT22;11286;45.596;5.284;2022-10-16T12:20:59;35.40;99.90
22235;DHT22;11286;45.596;5.284;2022-10-16T12:23:31;35.60;99.90
22235;DHT22;11286;45.596;5.284;2022-10-16T12:26:00;34.40;99.90
22235;DHT22;11286;45.596;5.284;2022-10-16T12:28:32;34.70;99.90
22235;DHT22;11286;45.596;5.284;2022-10-16T12:31:04;34.40;99.90
22235;DHT22;11286;45.596;5.284;2022-10-16T12:33:36;35.30;99.90
22235;DHT22;11286;45.596;5.284;2022-10-16T12:36:05;35.80;99.90
22235;DHT22;11286;45.596;5.284;2022-10-16T12:38:52;35.40;99.90
22235;DHT22;11286;45.596;5.284;2022-10-16T12:41:29;33.90;99.90
22235;DHT22;11286;45.596;5.284;2022-10-16T12:43:56;34.30;99.90
22235;DHT22;11286;45.596;5.284;2022-10-16T12:46:23;35.10;99.90
22235;DHT22;11286;45.596;5.284;2022-10-16T12:48:49;35.00;99.90
22235;DHT22;11286;45.596;5.284;2022-10-16T12:59:13;35.10;99.90
22235;DHT22;11286;45.596;5.284;2022-10-16T13:11:15;35.10;99.90
22235;DHT22;11286;45.596;5.284;2022-10-16T13:14:03;36.30;99.90
22235;DHT22;11286;45.596;5.284;2022-10-16T13:19:46;35.80;99.90
22235;DHT22;11286;45.596;5.284;2022-10-16T13:22:31;33.90;99.90
22235;DHT22;11286;45.596;5.284;2022-10-16T13:25:08;33.50;99.90
22235;DHT22;11286;45.596;5.284;2022-10-16T13:27:58;33.30;99.90
22235;DHT22;11286;45.596;5.284;2022-10-16T13:30:30;34.00;99.90
22235;DHT22;11286;45.596;5.284;2022-10-16T13:33:02;34.50;99.90
22235;DHT22;11286;45.596;5.284;2022-10-16T13:35:31;33.20;99.90
22235;DHT22;11286;45.596;5.284;2022-10-16T13:40:37;32.70;99.90
22235;DHT22;11286;45.596;5.284;2022-10-16T13:43:13;32.10;99.90
22235;DHT22;11286;45.596;5.284;2022-10-16T13:45:38;33.40;99.90
22235;DHT22;11286;45.596;5.284;2022-10-16T13:48:05;33.30;99.90
22235;DHT22;11286;45.596;5.284;2022-10-16T13:50:31;32.80;99.90
22235;DHT22;11286;45.596;5.284;2022-10-16T13:53:11;33.70;99.90
22235;DHT22;11286;45.596;5.284;2022-10-16T13:55:38;34.20;99.90
22235;DHT22;11286;45.596;5.284;2022-10-16T13:58:22;36.10;99.90
22235;DHT22;11286;45.596;5.284;2022-10-16T14:01:05;35.80;99.90
22235;DHT22;11286;45.596;5.284;2022-10-16T14:03:32;35.10;99.90
22235;DHT22;11286;45.596;5.284;2022-10-16T14:06:04;37.40;99.90
22235;DHT22;11286;45.596;5.284;2022-10-16T14:08:32;36.80;99.90
22235;DHT22;11286;45.596;5.284;2022-10-16T14:10:59;32.70;99.90
22235;DHT22;11286;45.596;5.284;2022-10-16T14:13:43;33.10;99.90
22235;DHT22;11286;45.596;5.284;2022-10-16T14:16:16;32.20;99.90
22235;DHT22;11286;45.596;5.284;2022-10-16T14:18:46;32.30;99.90
22235;DHT22;11286;45.596;5.284;2022-10-16T14:21:16;33.50;99.90
22235;DHT22;11286;45.596;5.284;2022-10-16T14:23:42;32.90;99.90
22235;DHT22;11286;45.596;5.284;2022-10-16T14:28:35;32.40;99.90
22235;DHT22;11286;45.596;5.284;2022-10-16T14:31:02;31.90;99.90
22235;DHT22;11286;45.596;5.284;2022-10-16T14:36:17;30.90;99.90
22235;DHT22;11286;45.596;5.284;2022-10-16T14:39:04;31.20;99.90
22235;DHT22;11286;45.596;5.284;2022-10-16T14:41:32;30.20;99.90
22235;DHT22;11286;45.596;5.284;2022-10-16T14:44:06;31.50;99.90
22235;DHT22;11286;45.596;5.284;2022-10-16T14:46:35;30.10;99.90
22235;DHT22;11286;45.596;5.284;2022-10-16T14:51:37;30.50;99.90
22235;DHT22;11286;45.596;5.284;2022-10-16T14:54:03;31.20;99.90
22235;DHT22;11286;45.596;5.284;2022-10-16T14:56:33;30.00;99.90
22235;DHT22;11286;45.596;5.284;2022-10-16T14:59:00;31.40;99.90
22235;DHT22;11286;45.596;5.284;2022-10-16T15:01:26;31.20;99.90
22235;DHT22;11286;45.596;5.284;2022-10-16T15:03:52;30.50;99.90
22235;DHT22;11286;45.596;5.284;2022-10-16T15:06:19;30.10;99.90
22235;DHT22;11286;45.596;5.284;2022-10-16T15:08:45;30.10;99.90
22235;DHT22;11286;45.596;5.284;2022-10-16T15:11:14;30.10;99.90
22235;DHT22;11286;45.596;5.284;2022-10-16T15:13:40;29.70;99.90
22235;DHT22;11286;45.596;5.284;2022-10-16T15:16:12;29.40;99.90
22235;DHT22;11286;45.596;5.284;2022-10-16T15:18:39;28.80;99.90
22235;DHT22;11286;45.596;5.284;2022-10-16T15:21:04;29.80;99.90
22235;DHT22;11286;45.596;5.284;2022-10-16T15:23:30;30.30;99.90
22235;DHT22;11286;45.596;5.284;2022-10-16T15:25:56;29.90;99.90
22235;DHT22;11286;45.596;5.284;2022-10-16T15:28:23;29.40;99.90
22235;DHT22;11286;45.596;5.284;2022-10-16T15:30:53;29.90;99.90
22235;DHT22;11286;45.596;5.284;2022-10-16T15:33:21;29.90;99.90
22235;DHT22;11286;45.596;5.284;2022-10-16T15:35:49;29.40;99.90
22235;DHT22;11286;45.596;5.284;2022-10-16T15:38:16;28.90;99.90
22235;DHT22;11286;45.596;5.284;2022-10-16T15:40:42;28.70;99.90
22235;DHT22;11286;45.596;5.284;2022-10-16T15:43:08;27.90;99.90
22235;DHT22;11286;45.596;5.284;2022-10-16T15:45:34;29.00;99.90
22235;DHT22;11286;45.596;5.284;2022-10-16T15:48:00;27.70;99.90
22235;DHT22;11286;45.596;5.284;2022-10-16T15:50:26;27.50;99.90
22235;DHT22;11286;45.596;5.284;2022-10-16T15:52:52;28.00;99.90
22235;DHT22;11286;45.596;5.284;2022-10-16T15:55:18;28.20;99.90
22235;DHT22;11286;45.596;5.284;2022-10-16T15:57:44;27.70;99.90
22235;DHT22;11286;45.596;5.284;2022-10-16T16:00:18;27.20;99.90
22235;DHT22;11286;45.596;5.284;2022-10-16T16:02:52;26.30;99.90
22235;DHT22;11286;45.596;5.284;2022-10-16T16:05:19;26.40;99.90
22235;DHT22;11286;45.596;5.284;2022-10-16T16:07:45;25.80;99.90
22235;DHT22;11286;45.596;5.284;2022-10-16T16:10:11;25.20;99.90
22235;DHT22;11286;45.596;5.284;2022-10-16T16:12:37;24.80;99.90
22235;DHT22;11286;45.596;5.284;2022-10-16T16:15:08;24.70;99.90
22235;DHT22;11286;45.596;5.284;2022-10-16T16:17:34;24.60;99.90
22235;DHT22;11286;45.596;5.284;2022-10-16T16:20:00;25.00;99.90
22235;DHT22;11286;45.596;5.284;2022-10-16T16:22:27;25.20;99.90
22235;DHT22;11286;45.596;5.284;2022-10-16T16:24:53;24.90;99.90
22235;DHT22;11286;45.596;5.284;2022-10-16T16:27:18;24.70;99.90
22235;DHT22;11286;45.596;5.284;2022-10-16T16:29:45;24.60;99.90
22235;DHT22;11286;45.596;5.284;2022-10-16T16:32:11;24.40;99.90
22235;DHT22;11286;45.596;5.284;2022-10-16T16:34:36;24.30;99.90
22235;DHT22;11286;45.596;5.284;2022-10-16T16:37:02;24.40;99.90
22235;DHT22;11286;45.596;5.284;2022-10-16T16:39:28;24.50;99.90
22235;DHT22;11286;45.596;5.284;2022-10-16T16:41:56;24.20;99.90
22235;DHT22;11286;45.596;5.284;2022-10-16T16:44:22;24.10;99.90
22235;DHT22;11286;45.596;5.284;2022-10-16T16:46:47;24.10;99.90
22235;DHT22;11286;45.596;5.284;2022-10-16T16:49:13;24.10;99.90
22235;DHT22;11286;45.596;5.284;2022-10-16T16:51:40;23.90;99.90
22235;DHT22;11286;45.596;5.284;2022-10-16T16:54:07;23.70;99.90
22235;DHT22;11286;45.596;5.284;2022-10-16T16:56:33;23.80;99.90
22235;DHT22;11286;45.596;5.284;2022-10-16T16:59:00;23.70;99.90
22235;DHT22;11286;45.596;5.284;2022-10-16T17:01:27;23.70;99.90
22235;DHT22;11286;45.596;5.284;2022-10-16T17:03:55;23.80;99.90
22235;DHT22;11286;45.596;5.284;2022-10-16T17:06:23;23.80;99.90
22235;DHT22;11286;45.596;5.284;2022-10-16T17:08:49;23.80;99.90
22235;DHT22;11286;45.596;5.284;2022-10-16T17:11:23;23.70;99.90
22235;DHT22;11286;45.596;5.284;2022-10-16T17:13:50;23.70;99.90
22235;DHT22;11286;45.596;5.284;2022-10-16T17:16:18;23.50;99.90
22235;DHT22;11286;45.596;5.284;2022-10-16T17:18:43;23.40;99.90
22235;DHT22;11286;45.596;5.284;2022-10-16T17:21:09;23.50;99.90
22235;DHT22;11286;45.596;5.284;2022-10-16T17:23:36;23.40;99.90